createdAt,value
2023-05-01T00:01:31.985Z,101523.00
2023-05-01T00:04:02.211Z,101520.00
2023-05-01T00:06:33.571Z,101515.00
2023-05-01T00:09:03.657Z,101520.00
2023-05-01T00:11:37.789Z,101520.00
2023-05-01T00:14:07.972Z,101516.00
2023-05-01T00:16:38.288Z,101518.00
2023-05-01T00:19:08.403Z,101519.00
2023-05-01T00:21:38.408Z,101517.00
2023-05-01T00:24:09.139Z,101514.00
2023-05-01T00:26:41.674Z,101504.00
2023-05-01T00:29:11.817Z,101516.00
2023-05-01T00:31:42.435Z,101510.00
2023-05-01T00:34:12.815Z,101513.00
2023-05-01T00:36:43.244Z,101508.00
2023-05-01T00:39:13.213Z,101511.00
2023-05-01T00:41:45.751Z,101507.00
2023-05-01T00:44:16.834Z,101517.00
2023-05-01T00:46:46.837Z,101506.00
2023-05-01T00:49:17.680Z,101500.00
2023-05-01T00:51:51.060Z,101507.00
2023-05-01T00:54:21.188Z,101504.00
2023-05-01T00:56:54.834Z,101492.00
2023-05-01T00:59:24.904Z,101497.00
2023-05-01T01:01:56.765Z,101492.00
2023-05-01T01:04:28.871Z,101492.00
2023-05-01T01:07:07.032Z,101492.00
2023-05-01T01:09:55.984Z,101494.00
2023-05-01T01:12:35.817Z,101493.00
2023-05-01T01:15:18.285Z,101492.00
2023-05-01T01:17:58.405Z,101488.00
2023-05-01T01:20:39.936Z,101484.00
2023-05-01T01:23:46.257Z,101478.00
2023-05-01T01:26:36.482Z,101484.00
2023-05-01T01:29:44.394Z,101478.00
2023-05-01T01:32:43.354Z,101476.00
2023-05-01T01:35:22.448Z,101472.00
2023-05-01T01:38:00.428Z,101467.00
2023-05-01T01:40:38.219Z,101471.00
2023-05-01T01:43:10.755Z,101465.00
2023-05-01T01:45:44.050Z,101472.00
2023-05-01T01:48:18.890Z,101464.00
2023-05-01T01:50:51.737Z,101463.00
2023-05-01T01:53:22.692Z,101463.00
2023-05-01T01:55:54.899Z,101451.00
2023-05-01T01:58:26.539Z,101459.00
2023-05-01T02:00:58.261Z,101451.00
2023-05-01T02:03:29.647Z,101441.00
2023-05-01T02:06:04.003Z,101448.00
2023-05-01T02:08:36.617Z,101452.00
2023-05-01T02:11:08.171Z,101453.00
2023-05-01T02:13:40.718Z,101448.00
2023-05-01T02:16:11.472Z,101454.00
2023-05-01T02:18:42.544Z,101449.00
2023-05-01T02:21:16.380Z,101449.00
2023-05-01T02:23:46.496Z,101440.00
2023-05-01T02:26:19.793Z,101456.00
2023-05-01T02:28:49.890Z,101426.00
2023-05-01T02:31:19.877Z,101431.00
2023-05-01T02:33:49.862Z,101425.00
2023-05-01T02:36:22.393Z,101431.00
2023-05-01T02:38:52.469Z,101430.00
2023-05-01T02:41:25.230Z,101426.00
2023-05-01T02:44:01.525Z,101428.00
2023-05-01T02:46:34.172Z,101425.00
2023-05-01T02:49:06.528Z,101429.00
2023-05-01T02:51:40.243Z,101419.00
2023-05-01T02:54:10.981Z,101417.00
2023-05-01T02:56:41.130Z,101423.00
2023-05-01T02:59:11.108Z,101406.00
2023-05-01T03:01:41.094Z,101402.00
2023-05-01T03:04:11.140Z,101401.00
2023-05-01T03:06:44.706Z,101402.00
2023-05-01T03:09:14.845Z,101388.00
2023-05-01T03:11:44.774Z,101391.00
2023-05-01T03:14:14.733Z,101386.00
2023-05-01T03:16:44.780Z,101386.00
2023-05-01T03:19:14.801Z,101383.00
2023-05-01T03:21:47.387Z,101383.00
2023-05-01T03:24:17.517Z,101384.00
2023-05-01T03:26:47.483Z,101380.00
2023-05-01T03:29:17.449Z,101372.00
2023-05-01T03:31:47.471Z,101366.00
2023-05-01T03:34:17.464Z,101360.00
2023-05-01T03:36:49.981Z,101369.00
2023-05-01T03:39:19.989Z,101370.00
2023-05-01T03:41:49.948Z,101371.00
2023-05-01T03:44:19.938Z,101378.00
2023-05-01T03:46:49.901Z,101361.00
2023-05-01T03:49:20.026Z,101358.00
2023-05-01T03:51:52.708Z,101364.00
2023-05-01T03:54:22.712Z,101366.00
2023-05-01T03:56:52.721Z,101368.00
2023-05-01T03:59:22.691Z,101360.00
2023-05-01T04:01:53.004Z,101363.00
2023-05-01T04:04:23.145Z,101368.00
2023-05-01T04:06:55.719Z,101369.00
2023-05-01T04:09:25.706Z,101367.00
2023-05-01T04:11:55.700Z,101370.00
2023-05-01T04:14:25.927Z,101368.00
2023-05-01T04:16:56.512Z,101365.00
2023-05-01T04:19:26.907Z,101355.00
2023-05-01T04:21:59.476Z,101358.00
2023-05-01T04:24:29.438Z,101355.00
2023-05-01T04:26:59.468Z,101348.00
2023-05-01T04:29:29.411Z,101357.00
2023-05-01T04:31:59.470Z,101358.00
2023-05-01T04:34:29.553Z,101358.00
2023-05-01T04:37:03.278Z,101361.00
2023-05-01T04:39:33.248Z,101349.00
2023-05-01T04:42:03.715Z,101345.00
2023-05-01T04:44:36.017Z,101347.00
2023-05-01T04:47:06.479Z,101350.00
2023-05-01T04:49:36.753Z,101341.00
2023-05-01T04:52:09.364Z,101334.00
2023-05-01T04:54:39.312Z,101337.00
2023-05-01T04:57:09.273Z,101337.00
2023-05-01T04:59:39.668Z,101340.00
2023-05-01T05:02:09.640Z,101344.00
2023-05-01T05:04:39.581Z,101340.00
2023-05-01T05:07:12.115Z,101338.00
2023-05-01T05:09:42.072Z,101337.00
2023-05-01T05:12:12.039Z,101340.00
2023-05-01T05:14:42.022Z,101337.00
2023-05-01T05:17:12.464Z,101337.00
2023-05-01T05:19:42.456Z,101335.00
2023-05-01T05:22:15.831Z,101330.00
2023-05-01T05:24:47.190Z,101334.00
2023-05-01T05:27:17.186Z,101328.00
2023-05-01T05:29:47.142Z,101336.00
2023-05-01T05:32:17.216Z,101322.00
2023-05-01T05:34:47.594Z,101322.00
2023-05-01T05:37:20.153Z,101319.00
2023-05-01T05:39:50.118Z,101318.00
2023-05-01T05:42:20.378Z,101319.00
2023-05-01T05:44:50.445Z,101312.00
2023-05-01T05:47:20.442Z,101308.00
2023-05-01T05:49:50.379Z,101318.00
2023-05-01T05:52:22.910Z,101306.00
2023-05-01T05:54:52.886Z,101310.00
2023-05-01T05:57:22.862Z,101307.00
2023-05-01T05:59:53.080Z,101313.00
2023-05-01T06:02:23.201Z,101304.00
2023-05-01T06:04:53.464Z,101305.00
2023-05-01T06:07:26.257Z,101300.00
2023-05-01T06:10:01.691Z,101305.00
2023-05-01T06:12:31.991Z,101307.00
2023-05-01T06:15:03.169Z,101305.00
2023-05-01T06:17:33.225Z,101303.00
2023-05-01T06:20:06.173Z,101306.00
2023-05-01T06:22:38.745Z,101298.00
2023-05-01T06:25:10.688Z,101296.00
2023-05-01T06:27:40.731Z,101303.00
2023-05-01T06:30:13.130Z,101300.00
2023-05-01T06:32:43.861Z,101290.00
2023-05-01T06:35:13.927Z,101292.00
2023-05-01T06:37:46.471Z,101293.00
2023-05-01T06:40:16.744Z,101297.00
2023-05-01T06:42:46.724Z,101295.00
2023-05-01T06:45:16.675Z,101288.00
2023-05-01T06:47:46.727Z,101288.00
2023-05-01T06:50:16.838Z,101280.00
2023-05-01T06:52:49.476Z,101291.00
2023-05-01T06:55:19.514Z,101291.00
2023-05-01T06:57:49.478Z,101290.00
2023-05-01T07:00:21.843Z,101286.00
2023-05-01T07:02:51.955Z,101278.00
2023-05-01T07:05:22.698Z,101281.00
2023-05-01T07:08:01.125Z,101291.00
2023-05-01T07:10:32.008Z,101289.00
2023-05-01T07:13:03.637Z,101292.00
2023-05-01T07:15:34.473Z,101285.00
2023-05-01T07:18:06.267Z,101281.00
2023-05-01T07:20:37.339Z,101283.00
2023-05-01T07:23:09.938Z,101286.00
2023-05-01T07:25:41.636Z,101287.00
2023-05-01T07:28:11.608Z,101279.00
2023-05-01T07:30:41.614Z,101273.00
2023-05-01T07:33:12.221Z,101274.00
2023-05-01T07:35:43.263Z,101267.00
2023-05-01T07:38:16.246Z,101263.00
2023-05-01T07:40:46.352Z,101268.00
2023-05-01T07:43:16.601Z,101269.00
2023-05-01T07:45:59.017Z,101261.00
2023-05-01T07:48:30.501Z,101263.00
2023-05-01T07:51:00.616Z,101258.00
2023-05-01T07:53:33.315Z,101252.00
2023-05-01T07:56:10.234Z,101254.00
2023-05-01T07:58:41.689Z,101254.00
2023-05-01T08:01:12.005Z,101239.00
2023-05-01T08:03:42.325Z,101235.00
2023-05-01T08:06:12.347Z,101241.00
2023-05-01T08:08:44.911Z,101248.00
2023-05-01T08:11:14.986Z,101245.00
2023-05-01T08:13:44.932Z,101229.00
2023-05-01T08:16:15.126Z,101233.00
2023-05-01T08:18:45.129Z,101230.00
2023-05-01T08:21:15.479Z,101223.00
2023-05-01T08:23:48.011Z,101228.00
2023-05-01T08:26:17.961Z,101229.00
2023-05-01T08:28:47.989Z,101231.00
2023-05-01T08:31:19.583Z,101226.00
2023-05-01T08:33:49.659Z,101220.00
2023-05-01T08:36:21.292Z,101225.00
2023-05-01T08:38:54.296Z,101220.00
2023-05-01T08:41:25.729Z,101225.00
2023-05-01T08:43:56.092Z,101222.00
2023-05-01T08:46:37.213Z,101217.00
2023-05-01T08:49:09.461Z,101228.00
2023-05-01T08:51:41.071Z,101209.00
2023-05-01T08:54:14.461Z,101211.00
2023-05-01T08:56:46.759Z,101206.00
2023-05-01T08:59:17.750Z,101205.00
2023-05-01T09:01:49.965Z,101202.00
2023-05-01T09:04:20.903Z,101186.00
2023-05-01T09:06:51.412Z,101188.00
2023-05-01T09:09:23.970Z,101184.00
2023-05-01T09:11:54.014Z,101189.00
2023-05-01T09:14:24.103Z,101190.00
2023-05-01T09:16:54.444Z,101188.00
2023-05-01T09:19:24.618Z,101184.00
2023-05-01T09:21:54.683Z,101176.00
2023-05-01T09:24:28.370Z,101166.00
2023-05-01T09:26:58.982Z,101168.00
2023-05-01T09:29:41.897Z,101175.00
2023-05-01T09:32:20.868Z,101164.00
2023-05-01T09:34:52.702Z,101164.00
2023-05-01T09:37:33.472Z,101161.00
2023-05-01T09:40:12.231Z,101146.00
2023-05-01T09:42:44.166Z,101142.00
2023-05-01T09:45:16.921Z,101139.00
2023-05-01T09:47:47.599Z,101140.00
2023-05-01T09:50:34.917Z,101125.00
2023-05-01T09:53:06.759Z,101127.00
2023-05-01T09:55:39.393Z,101130.00
2023-05-01T09:58:09.931Z,101130.00
2023-05-01T10:00:52.071Z,101121.00
2023-05-01T10:03:22.270Z,101116.00
2023-05-01T10:05:52.310Z,101122.00
2023-05-01T10:08:22.318Z,101119.00
2023-05-01T10:11:08.332Z,101126.00
2023-05-01T10:13:38.292Z,101113.00
2023-05-01T10:16:10.728Z,101107.00
2023-05-01T10:18:40.748Z,101117.00
2023-05-01T10:21:10.969Z,101106.00
2023-05-01T10:23:41.404Z,101101.00
2023-05-01T10:26:17.911Z,101102.00
2023-05-01T10:28:51.783Z,101092.00
2023-05-01T10:31:22.112Z,101087.00
2023-05-01T10:33:53.240Z,101088.00
2023-05-01T10:36:28.751Z,101088.00
2023-05-01T10:38:58.977Z,101082.00
2023-05-01T10:42:14.197Z,101062.00
2023-05-01T10:44:48.015Z,101061.00
2023-05-01T10:47:48.989Z,101061.00
2023-05-01T10:50:19.713Z,101056.00
2023-05-01T10:53:20.541Z,101052.00
2023-05-01T10:55:52.145Z,101044.00
2023-05-01T10:59:04.681Z,101039.00
2023-05-01T11:01:37.009Z,101032.00
2023-05-01T11:04:08.521Z,101039.00
2023-05-01T11:06:39.844Z,101030.00
2023-05-01T11:09:41.378Z,101025.00
2023-05-01T11:12:13.903Z,101025.00
2023-05-01T11:15:09.788Z,101017.00
2023-05-01T11:17:49.934Z,101007.00
2023-05-01T11:20:52.201Z,101004.00
2023-05-01T11:23:24.036Z,101002.00
2023-05-01T11:26:04.990Z,100993.00
2023-05-01T11:28:36.244Z,100994.00
2023-05-01T11:31:08.990Z,100998.00
2023-05-01T11:33:38.957Z,100986.00
2023-05-01T11:36:09.432Z,100982.00
2023-05-01T11:38:40.006Z,100973.00
2023-05-01T11:41:10.559Z,100970.00
2023-05-01T11:43:53.467Z,100976.00
2023-05-01T11:46:31.371Z,100969.00
2023-05-01T11:49:03.928Z,100962.00
2023-05-01T11:51:34.794Z,100957.00
2023-05-01T11:54:06.251Z,100962.00
2023-05-01T11:56:38.424Z,100957.00
2023-05-01T11:59:17.301Z,100957.00
2023-05-01T12:01:51.221Z,100940.00
2023-05-01T12:04:31.556Z,100939.00
2023-05-01T12:07:02.818Z,100934.00
2023-05-01T12:09:33.992Z,100943.00
2023-05-01T12:12:04.444Z,100935.00
2023-05-01T12:14:34.825Z,100929.00
2023-05-01T12:17:09.989Z,100932.00
2023-05-01T12:19:51.564Z,100923.00
2023-05-01T12:22:22.009Z,100930.00
2023-05-01T12:24:54.442Z,100922.00
2023-05-01T12:27:24.517Z,100925.00
2023-05-01T12:29:55.221Z,100918.00
2023-05-01T12:32:35.207Z,100907.00
2023-05-01T12:35:17.371Z,100909.00
2023-05-01T12:37:47.369Z,100904.00
2023-05-01T12:40:19.135Z,100898.00
2023-05-01T12:42:59.542Z,100894.00
2023-05-01T12:45:29.664Z,100892.00
2023-05-01T12:48:02.489Z,100890.00
2023-05-01T12:50:32.619Z,100888.00
2023-05-01T12:53:07.320Z,100885.00
2023-05-01T12:55:48.397Z,100880.00
2023-05-01T12:58:20.855Z,100876.00
2023-05-01T13:00:53.149Z,100872.00
2023-05-01T13:03:29.635Z,100870.00
2023-05-01T13:06:02.470Z,100872.00
2023-05-01T13:08:34.399Z,100870.00
2023-05-01T13:11:13.858Z,100872.00
2023-05-01T13:13:45.775Z,100874.00
2023-05-01T13:16:18.201Z,100882.00
2023-05-01T13:18:53.804Z,100873.00
2023-05-01T13:21:25.545Z,100870.00
2023-05-01T13:23:57.688Z,100859.00
2023-05-01T13:26:33.007Z,100861.00
2023-05-01T13:29:03.943Z,100867.00
2023-05-01T13:31:34.498Z,100869.00
2023-05-01T13:34:08.556Z,100859.00
2023-05-01T13:36:38.952Z,100859.00
2023-05-01T13:39:09.098Z,100857.00
2023-05-01T13:41:39.871Z,100858.00
2023-05-01T13:44:10.111Z,100855.00
2023-05-01T13:46:42.972Z,100858.00
2023-05-01T13:49:16.818Z,100848.00
2023-05-01T13:51:48.987Z,100850.00
2023-05-01T13:54:20.815Z,100849.00
2023-05-01T13:56:50.920Z,100843.00
2023-05-01T13:59:20.985Z,100831.00
2023-05-01T14:01:51.270Z,100833.00
2023-05-01T14:04:24.114Z,100827.00
2023-05-01T14:06:54.402Z,100821.00
2023-05-01T14:09:24.445Z,100823.00
2023-05-01T14:12:00.712Z,100823.00
2023-05-01T14:14:30.854Z,100819.00
2023-05-01T14:17:00.894Z,100808.00
2023-05-01T14:19:33.553Z,100810.00
2023-05-01T14:22:03.527Z,100804.00
2023-05-01T14:24:34.153Z,100797.00
2023-05-01T14:27:07.361Z,100785.00
2023-05-01T14:29:37.348Z,100784.00
2023-05-01T14:32:08.740Z,100784.00
2023-05-01T14:34:45.523Z,100783.00
2023-05-01T14:37:16.256Z,100781.00
2023-05-01T14:39:46.221Z,100779.00
2023-05-01T14:42:16.428Z,100783.00
2023-05-01T14:44:46.431Z,100779.00
2023-05-01T14:47:22.935Z,100776.00
2023-05-01T14:49:56.942Z,100775.00
2023-05-01T14:52:26.907Z,100773.00
2023-05-01T14:54:57.038Z,100764.00
2023-05-01T14:57:29.142Z,100772.00
2023-05-01T14:59:59.282Z,100774.00
2023-05-01T15:02:30.454Z,100770.00
2023-05-01T15:05:03.699Z,100764.00
2023-05-01T15:07:34.028Z,100764.00
2023-05-01T15:10:04.009Z,100766.00
2023-05-01T15:12:33.957Z,100766.00
2023-05-01T15:15:04.108Z,100759.00
2023-05-01T15:17:34.121Z,100759.00
2023-05-01T15:20:08.106Z,100752.00
2023-05-01T15:22:40.334Z,100749.00
2023-05-01T15:25:12.811Z,100745.00
2023-05-01T15:27:44.572Z,100754.00
2023-05-01T15:30:17.716Z,100749.00
2023-05-01T15:32:47.784Z,100754.00
2023-05-01T15:35:21.676Z,100745.00
2023-05-01T15:37:51.634Z,100751.00
2023-05-01T15:40:21.871Z,100754.00
2023-05-01T15:42:52.116Z,100743.00
2023-05-01T15:45:23.036Z,100743.00
2023-05-01T15:47:53.079Z,100748.00
2023-05-01T15:50:27.140Z,100746.00
2023-05-01T15:52:57.187Z,100746.00
2023-05-01T15:55:27.225Z,100738.00
2023-05-01T15:57:57.181Z,100735.00
2023-05-01T16:00:27.531Z,100740.00
2023-05-01T16:02:57.552Z,100740.00
2023-05-01T16:05:30.227Z,100737.00
2023-05-01T16:08:04.935Z,100738.00
2023-05-01T16:10:37.245Z,100735.00
2023-05-01T16:13:08.656Z,100731.00
2023-05-01T16:15:40.205Z,100736.00
2023-05-01T16:18:11.195Z,100733.00
2023-05-01T16:20:46.424Z,100737.00
2023-05-01T16:23:18.199Z,100738.00
2023-05-01T16:25:48.672Z,100733.00
2023-05-01T16:28:19.902Z,100737.00
2023-05-01T16:30:50.592Z,100738.00
2023-05-01T16:33:23.547Z,100730.00
2023-05-01T16:35:57.548Z,100729.00
2023-05-01T16:38:29.525Z,100730.00
2023-05-01T16:40:59.491Z,100736.00
2023-05-01T16:43:29.466Z,100735.00
2023-05-01T16:46:01.657Z,100742.00
2023-05-01T16:48:31.780Z,100741.00
2023-05-01T16:51:07.512Z,100734.00
2023-05-01T16:53:37.694Z,100734.00
2023-05-01T16:56:10.309Z,100724.00
2023-05-01T16:58:40.274Z,100731.00
2023-05-01T17:01:10.263Z,100734.00
2023-05-01T17:03:40.320Z,100733.00
2023-05-01T17:06:12.850Z,100728.00
2023-05-01T17:08:42.852Z,100731.00
2023-05-01T17:11:14.628Z,100733.00
2023-05-01T17:13:44.656Z,100727.00
2023-05-01T17:16:14.670Z,100731.00
2023-05-01T17:18:44.713Z,100727.00
2023-05-01T17:21:17.425Z,100728.00
2023-05-01T17:23:47.428Z,100725.00
2023-05-01T17:26:17.576Z,100725.00
2023-05-01T17:28:49.197Z,100723.00
2023-05-01T17:31:21.868Z,100719.00
2023-05-01T17:33:52.525Z,100724.00
2023-05-01T17:36:25.122Z,100718.00
2023-05-01T17:38:55.059Z,100718.00
2023-05-01T17:41:25.306Z,100725.00
2023-05-01T17:43:55.414Z,100727.00
2023-05-01T17:46:25.590Z,100728.00
2023-05-01T17:48:55.751Z,100723.00
2023-05-01T17:51:28.650Z,100720.00
2023-05-01T17:53:58.603Z,100717.00
2023-05-01T17:56:28.632Z,100724.00
2023-05-01T17:58:58.607Z,100718.00
2023-05-01T18:01:28.985Z,100715.00
2023-05-01T18:03:59.265Z,100720.00
2023-05-01T18:06:32.097Z,100717.00
2023-05-01T18:09:02.089Z,100716.00
2023-05-01T18:11:32.052Z,100714.00
2023-05-01T18:14:02.590Z,100708.00
2023-05-01T18:16:32.652Z,100714.00
2023-05-01T18:19:02.685Z,100707.00
2023-05-01T18:21:35.309Z,100708.00
2023-05-01T18:24:05.624Z,100704.00
2023-05-01T18:26:36.373Z,100708.00
2023-05-01T18:29:06.330Z,100705.00
2023-05-01T18:31:38.353Z,100702.00
2023-05-01T18:34:10.299Z,100707.00
2023-05-01T18:36:42.848Z,100700.00
2023-05-01T18:39:12.889Z,100705.00
2023-05-01T18:41:42.927Z,100705.00
2023-05-01T18:44:12.869Z,100703.00
2023-05-01T18:46:43.798Z,100697.00
2023-05-01T18:49:14.034Z,100702.00
2023-05-01T18:51:48.009Z,100704.00
2023-05-01T18:54:18.194Z,100704.00
2023-05-01T18:56:48.171Z,100704.00
2023-05-01T18:59:18.456Z,100701.00
2023-05-01T19:01:50.296Z,100696.00
2023-05-01T19:04:22.035Z,100698.00
2023-05-01T19:06:54.830Z,100713.00
2023-05-01T19:09:25.185Z,100719.00
2023-05-01T19:11:55.142Z,100716.00
2023-05-01T19:14:25.360Z,100712.00
2023-05-01T19:16:55.347Z,100707.00
2023-05-01T19:19:26.326Z,100711.00
2023-05-01T19:21:59.112Z,100718.00
2023-05-01T19:24:29.072Z,100709.00
2023-05-01T19:26:59.088Z,100712.00
2023-05-01T19:29:29.075Z,100717.00
2023-05-01T19:32:00.407Z,100704.00
2023-05-01T19:34:31.011Z,100708.00
2023-05-01T19:37:03.943Z,100700.00
2023-05-01T19:39:34.369Z,100705.00
2023-05-01T19:42:04.596Z,100690.00
2023-05-01T19:44:34.712Z,100694.00
2023-05-01T19:47:04.823Z,100697.00
2023-05-01T19:49:34.879Z,100706.00
2023-05-01T19:52:08.021Z,100697.00
2023-05-01T19:54:37.999Z,100700.00
2023-05-01T19:57:08.061Z,100696.00
2023-05-01T19:59:41.267Z,100700.00
2023-05-01T20:02:11.354Z,100701.00
2023-05-01T20:04:41.393Z,100689.00
2023-05-01T20:07:14.623Z,100689.00
2023-05-01T20:09:44.889Z,100686.00
2023-05-01T20:12:14.932Z,100692.00
2023-05-01T20:14:44.964Z,100679.00
2023-05-01T20:17:14.928Z,100680.00
2023-05-01T20:19:45.049Z,100685.00
2023-05-01T20:22:17.829Z,100680.00
2023-05-01T20:24:48.103Z,100679.00
2023-05-01T20:27:18.522Z,100681.00
2023-05-01T20:29:48.869Z,100678.00
2023-05-01T20:32:20.228Z,100689.00
2023-05-01T20:34:50.949Z,100683.00
2023-05-01T20:37:23.760Z,100686.00
2023-05-01T20:39:53.749Z,100681.00
2023-05-01T20:42:23.926Z,100682.00
2023-05-01T20:44:53.900Z,100687.00
2023-05-01T20:47:24.367Z,100685.00
2023-05-01T20:49:54.446Z,100685.00
2023-05-01T20:52:27.881Z,100681.00
2023-05-01T20:54:57.871Z,100696.00
2023-05-01T20:57:27.855Z,100688.00
2023-05-01T20:59:58.079Z,100694.00
2023-05-01T21:02:28.323Z,100683.00
2023-05-01T21:04:58.397Z,100690.00
2023-05-01T21:07:32.427Z,100691.00
2023-05-01T21:10:03.101Z,100690.00
2023-05-01T21:12:33.092Z,100689.00
2023-05-01T21:15:03.084Z,100687.00
2023-05-01T21:17:35.638Z,100691.00
2023-05-01T21:20:08.707Z,100694.00
2023-05-01T21:22:45.782Z,100687.00
2023-05-01T21:25:20.052Z,100703.00
2023-05-01T21:27:50.140Z,100703.00
2023-05-01T21:30:33.709Z,100697.00
2023-05-01T21:33:03.986Z,100693.00
2023-05-01T21:35:34.331Z,100693.00
2023-05-01T21:38:07.308Z,100704.00
2023-05-01T21:40:40.302Z,100698.00
2023-05-01T21:43:11.938Z,100703.00
2023-05-01T21:45:46.187Z,100708.00
2023-05-01T21:48:18.635Z,100696.00
2023-05-01T21:50:52.433Z,100703.00
2023-05-01T21:53:25.087Z,100708.00
2023-05-01T21:55:55.114Z,100712.00
2023-05-01T21:58:25.177Z,100714.00
2023-05-01T22:00:55.557Z,100710.00
2023-05-01T22:03:25.708Z,100724.00
2023-05-01T22:05:55.837Z,100710.00
2023-05-01T22:08:31.199Z,100707.00
2023-05-01T22:11:01.238Z,100713.00
2023-05-01T22:13:33.657Z,100714.00
2023-05-01T22:16:04.117Z,100715.00
2023-05-01T22:18:34.176Z,100720.00
2023-05-01T22:21:04.726Z,100716.00
2023-05-01T22:23:37.277Z,100717.00
2023-05-01T22:26:07.298Z,100721.00
2023-05-01T22:28:37.603Z,100719.00
2023-05-01T22:31:07.819Z,100712.00
2023-05-01T22:33:37.806Z,100717.00
2023-05-01T22:36:08.697Z,100723.00
2023-05-01T22:38:41.461Z,100711.00
2023-05-01T22:41:11.779Z,100707.00
2023-05-01T22:43:41.899Z,100711.00
2023-05-01T22:46:11.897Z,100709.00
2023-05-01T22:48:41.889Z,100721.00
2023-05-01T22:51:11.869Z,100714.00
2023-05-01T22:53:44.677Z,100709.00
2023-05-01T22:56:14.652Z,100715.00
2023-05-01T22:58:44.592Z,100719.00
2023-05-01T23:01:14.693Z,100711.00
2023-05-01T23:03:44.748Z,100708.00
2023-05-01T23:06:14.858Z,100711.00
2023-05-01T23:08:47.488Z,100725.00
2023-05-01T23:11:22.024Z,100724.00
2023-05-01T23:13:53.413Z,100726.00
2023-05-01T23:16:23.443Z,100727.00
2023-05-01T23:18:53.635Z,100724.00
2023-05-01T23:21:23.834Z,100722.00
2023-05-01T23:23:56.469Z,100727.00
2023-05-01T23:26:29.119Z,100714.00
2023-05-01T23:29:00.186Z,100717.00
2023-05-01T23:31:30.731Z,100717.00
2023-05-01T23:34:01.398Z,100718.00
2023-05-01T23:36:31.675Z,100721.00
2023-05-01T23:39:04.238Z,100722.00
2023-05-01T23:41:34.310Z,100718.00
2023-05-01T23:44:04.599Z,100715.00
2023-05-01T23:46:34.731Z,100719.00
2023-05-01T23:49:05.150Z,100711.00
2023-05-01T23:51:35.350Z,100713.00
2023-05-01T23:54:07.929Z,100706.00
2023-05-01T23:56:37.877Z,100716.00
2023-05-01T23:59:08.269Z,100710.00
